Time;durP1;ratioP1;P1;durP2;ratioP2;P2;SDS_P1;SDS_P2;PMS_P1;PMS_P2;Temp;Humidity;BMP_temperature;BMP_pressure;BME280_temperature;BME280_humidity;BME280_pressure;Samples;Min_cycle;Max_cycle;Signal;HPM_P1;HPM_P2
2022/09/24 00:02:51;;;;;;;63.63;46.35;;;;;;;;;;6306515;22;20051;-86
2022/09/24 00:05:17;;;;;;;69.93;49.72;;;;;;;;;;6304116;22;20519;-86
2022/09/24 00:07:54;;;;;;;66.75;49.90;;;;;;;;;;6277760;22;20026;-88
2022/09/24 00:10:51;;;;;;;65.30;48.00;;;;;;;;;;6304098;22;20035;-86
2022/09/24 00:13:17;;;;;;;66.85;49.58;;;;;;;;;;6307985;22;20023;-86
2022/09/24 00:15:48;;;;;;;71.30;50.38;;;;;;;;;;6257628;22;20029;-85
2022/09/24 00:21:46;;;;;;;73.68;51.97;;;;;;;;;;6311628;22;20018;-85
2022/09/24 00:27:36;;;;;;;66.68;50.25;;;;;;;;;;6184693;23;20071;-85
2022/09/24 00:33:27;;;;;;;79.38;54.35;;;;;;;;;;6211145;23;20517;-85
2022/09/24 00:38:52;;;;;;;80.53;52.33;;;;;;;;;;6234145;23;20054;-84
2022/09/24 00:41:19;;;;;;;67.88;52.50;;;;;;;;;;6212336;23;20516;-82
2022/09/24 00:43:46;;;;;;;79.15;54.03;;;;;;;;;;6212006;23;20024;-83
2022/09/24 00:46:27;;;;;;;75.85;53.45;;;;;;;;;;6236391;23;20019;-85
2022/09/24 00:49:00;;;;;;;75.35;54.88;;;;;;;;;;6216873;23;20016;-84
2022/09/24 00:51:27;;;;;;;76.28;54.00;;;;;;;;;;6241544;23;20031;-82
2022/09/24 00:53:56;;;;;;;79.13;55.05;;;;;;;;;;6244246;23;20047;-82
2022/09/24 00:56:30;;;;;;;72.63;53.55;;;;;;;;;;6294998;22;20023;-83
2022/09/24 00:58:56;;;;;;;72.43;52.55;;;;;;;;;;6312749;22;21082;-84
2022/09/24 01:01:23;;;;;;;80.95;56.63;;;;;;;;;;6308748;22;20386;-86
2022/09/24 01:03:54;;;;;;;76.10;53.78;;;;;;;;;;6306931;22;20015;-81
2022/09/24 01:06:20;;;;;;;71.70;53.80;;;;;;;;;;6304752;22;20027;-84
2022/09/24 01:08:46;;;;;;;80.35;55.72;;;;;;;;;;6306764;22;20019;-84
2022/09/24 01:11:24;;;;;;;72.50;54.20;;;;;;;;;;6305401;22;20036;-85
2022/09/24 01:13:51;;;;;;;78.38;51.63;;;;;;;;;;6304877;22;20459;-87
2022/09/24 01:16:26;;;;;;;75.25;54.53;;;;;;;;;;6305226;22;20018;-86
2022/09/24 01:18:54;;;;;;;74.35;54.38;;;;;;;;;;6277224;22;20030;-83
2022/09/24 01:21:32;;;;;;;79.70;59.10;;;;;;;;;;6281906;22;20332;-86
2022/09/24 01:24:17;;;;;;;80.30;56.92;;;;;;;;;;6283659;22;20034;-87
2022/09/24 01:27:08;;;;;;;81.90;57.58;;;;;;;;;;6281017;22;20022;-87
2022/09/24 01:29:40;;;;;;;83.30;57.28;;;;;;;;;;6309414;22;20045;-87
2022/09/24 01:32:25;;;;;;;81.95;57.67;;;;;;;;;;6258023;22;20015;-85
2022/09/24 01:35:20;;;;;;;81.40;57.97;;;;;;;;;;6304696;22;20431;-84
2022/09/24 01:38:13;;;;;;;81.70;58.88;;;;;;;;;;6305830;22;20028;-85
2022/09/24 01:40:40;;;;;;;89.97;60.85;;;;;;;;;;6179003;23;20021;-86
2022/09/24 01:43:12;;;;;;;83.45;59.13;;;;;;;;;;6180508;23;20985;-87
2022/09/24 01:45:44;;;;;;;85.70;60.15;;;;;;;;;;6154996;23;20021;-86
2022/09/24 01:48:20;;;;;;;88.97;63.10;;;;;;;;;;6129977;23;20035;-85
2022/09/24 01:53:46;;;;;;;93.53;64.65;;;;;;;;;;6304798;22;20459;-83
2022/09/24 01:56:16;;;;;;;94.90;65.97;;;;;;;;;;6306305;22;20082;-84
2022/09/24 01:58:54;;;;;;;104.15;68.90;;;;;;;;;;6306973;22;20019;-87
2022/09/24 02:01:22;;;;;;;99.78;66.72;;;;;;;;;;6303674;22;20397;-87
2022/09/24 02:03:52;;;;;;;100.53;70.30;;;;;;;;;;6306370;22;20023;-85
2022/09/24 02:06:38;;;;;;;106.93;71.25;;;;;;;;;;6303963;22;20030;-86
2022/09/24 02:12:42;;;;;;;111.50;71.10;;;;;;;;;;6307397;22;20064;-86
2022/09/24 02:15:16;;;;;;;116.68;74.88;;;;;;;;;;6305970;22;20019;-86
2022/09/24 02:17:59;;;;;;;;;;;;;;;;;;;;;
2022/09/24 02:20:39;;;;;;;112.22;71.38;;;;;;;;;;6287123;22;20020;-86
2022/09/24 02:27:18;;;;;;;127.07;78.35;;;;;;;;;;6306931;22;20544;-85
2022/09/24 02:29:45;;;;;;;120.25;78.15;;;;;;;;;;6254165;22;20378;-85
2022/09/24 02:32:14;;;;;;;121.57;79.25;;;;;;;;;;6278259;22;20030;-84
2022/09/24 02:34:42;;;;;;;130.18;83.35;;;;;;;;;;6280652;22;20015;-85
2022/09/24 02:37:09;;;;;;;129.98;82.80;;;;;;;;;;6254506;22;20064;-86
2022/09/24 02:39:36;;;;;;;131.93;83.68;;;;;;;;;;6282572;22;20019;-84
2022/09/24 02:42:21;;;;;;;144.48;89.18;;;;;;;;;;6279730;22;20015;-87
2022/09/24 02:45:05;;;;;;;132.75;84.25;;;;;;;;;;6254819;22;20053;-85
2022/09/24 02:47:32;;;;;;;127.85;84.72;;;;;;;;;;6304343;22;20500;-86
2022/09/24 02:54:01;;;;;;;138.95;84.38;;;;;;;;;;6132974;22;20112;-86
2022/09/24 02:56:14;;;;;;;124.72;81.38;;;;;;;;;;6293323;22;20030;-87
2022/09/24 02:58:41;;;;;;;134.95;85.20;;;;;;;;;;6277968;22;20011;-86
2022/09/24 03:01:08;;;;;;;130.30;84.05;;;;;;;;;;6226517;22;20477;-85
2022/09/24 03:03:34;;;;;;;139.88;87.43;;;;;;;;;;6251119;22;20034;-85
2022/09/24 03:06:00;;;;;;;143.52;90.45;;;;;;;;;;6275502;22;20026;-85
2022/09/24 03:08:26;;;;;;;134.75;85.75;;;;;;;;;;6253606;22;20033;-84
2022/09/24 03:10:59;;;;;;;135.75;85.63;;;;;;;;;;6304564;22;20460;-86
2022/09/24 03:13:25;;;;;;;133.47;83.00;;;;;;;;;;6306255;22;20019;-84
2022/09/24 03:19:15;;;;;;;143.38;86.38;;;;;;;;;;6233859;22;20059;-83
2022/09/24 03:21:47;;;;;;;142.75;84.80;;;;;;;;;;6271887;22;20022;-83
2022/09/24 03:24:13;;;;;;;152.95;86.15;;;;;;;;;;6249802;22;20027;-85
2022/09/24 03:26:40;;;;;;;134.02;83.97;;;;;;;;;;6248688;22;20054;-84
2022/09/24 03:29:06;;;;;;;142.52;88.45;;;;;;;;;;6283804;22;20023;-83
2022/09/24 03:31:32;;;;;;;155.63;88.85;;;;;;;;;;6261279;22;20019;-83
2022/09/24 03:33:58;;;;;;;135.32;83.70;;;;;;;;;;6284729;22;20015;-83
2022/09/24 03:36:25;;;;;;;132.10;81.88;;;;;;;;;;6224664;22;20064;-84
2022/09/24 03:38:55;;;;;;;143.27;86.85;;;;;;;;;;6275265;22;20581;-83
2022/09/24 03:41:34;;;;;;;137.35;81.65;;;;;;;;;;6250100;22;20011;-86
2022/09/24 03:44:26;;;;;;;143.25;83.00;;;;;;;;;;6274698;22;20375;-86
2022/09/24 03:47:04;;;;;;;136.38;81.90;;;;;;;;;;6275562;22;20090;-85
2022/09/24 03:49:30;;;;;;;147.07;87.07;;;;;;;;;;6224658;22;20023;-85
2022/09/24 03:51:56;;;;;;;137.88;84.07;;;;;;;;;;6277987;22;20022;-85
2022/09/24 03:54:22;;;;;;;140.43;83.63;;;;;;;;;;6249758;22;20023;-85
2022/09/24 03:56:48;;;;;;;134.10;82.45;;;;;;;;;;6303377;22;20023;-85
2022/09/24 03:59:14;;;;;;;138.73;82.78;;;;;;;;;;6275951;22;20051;-85
2022/09/24 04:01:40;;;;;;;127.20;76.43;;;;;;;;;;6225297;22;20325;-83
2022/09/24 04:04:06;;;;;;;122.95;77.30;;;;;;;;;;6249172;22;20015;-84
2022/09/24 04:06:32;;;;;;;115.05;72.00;;;;;;;;;;6302947;22;20019;-85
2022/09/24 04:08:59;;;;;;;106.22;66.57;;;;;;;;;;6249992;22;20019;-85
2022/09/24 04:11:26;;;;;;;77.75;46.20;;;;;;;;;;6274850;22;20372;-84
2022/09/24 04:13:52;;;;;;;73.75;45.63;;;;;;;;;;6303594;22;20112;-84
2022/09/24 04:16:19;;;;;;;67.88;39.75;;;;;;;;;;6274479;22;20012;-84
2022/09/24 04:18:46;;;;;;;67.75;40.83;;;;;;;;;;6277595;22;20022;-84
2022/09/24 04:21:31;;;;;;;58.78;29.17;;;;;;;;;;6246276;22;20017;-85
2022/09/24 04:24:26;;;;;;;54.55;32.95;;;;;;;;;;6304231;22;20503;-86
2022/09/24 04:26:52;;;;;;;44.10;15.95;;;;;;;;;;6277272;22;20020;-86
2022/09/24 04:29:18;;;;;;;31.38;11.75;;;;;;;;;;6277203;22;20145;-84
2022/09/24 04:31:56;;;;;;;27.77;10.57;;;;;;;;;;6253000;22;20023;-85
2022/09/24 04:34:22;;;;;;;34.88;12.27;;;;;;;;;;6250869;22;20022;-85
2022/09/24 04:37:00;;;;;;;27.30;8.23;;;;;;;;;;6277507;22;20023;-85
2022/09/24 04:39:26;;;;;;;24.98;9.40;;;;;;;;;;6302047;22;20025;-83
2022/09/24 04:41:55;;;;;;;28.52;4.95;;;;;;;;;;6250128;22;20392;-84
2022/09/24 04:44:22;;;;;;;28.40;5.07;;;;;;;;;;6248958;22;20050;-85
2022/09/24 04:46:48;;;;;;;26.05;4.88;;;;;;;;;;6304504;22;20156;-86
2022/09/24 04:49:15;;;;;;;32.00;6.30;;;;;;;;;;6274705;22;20019;-85
2022/09/24 04:51:41;;;;;;;31.42;4.22;;;;;;;;;;6250492;22;20019;-87
2022/09/24 04:54:08;;;;;;;28.55;4.78;;;;;;;;;;6276383;22;20020;-86
2022/09/24 04:56:34;;;;;;;26.17;4.80;;;;;;;;;;6250155;22;20023;-85
2022/09/24 04:59:00;;;;;;;21.95;3.92;;;;;;;;;;6252372;22;20094;-85
2022/09/24 05:01:26;;;;;;;23.77;3.35;;;;;;;;;;6306909;22;20023;-86
2022/09/24 05:03:52;;;;;;;22.45;3.78;;;;;;;;;;6228357;22;20011;-85
2022/09/24 05:06:18;;;;;;;30.40;3.50;;;;;;;;;;6278478;22;20022;-85
2022/09/24 05:08:44;;;;;;;15.98;3.17;;;;;;;;;;6253689;22;20098;-85
2022/09/24 05:11:11;;;;;;;23.20;3.22;;;;;;;;;;6278835;22;20595;-85
2022/09/24 05:13:37;;;;;;;20.60;4.20;;;;;;;;;;6251791;22;20020;-85
2022/09/24 05:16:04;;;;;;;17.10;2.97;;;;;;;;;;6222995;22;20015;-84
2022/09/24 05:18:30;;;;;;;17.45;3.75;;;;;;;;;;6302336;22;20016;-84
2022/09/24 05:20:56;;;;;;;23.10;4.35;;;;;;;;;;6249218;22;20051;-85
2022/09/24 05:23:22;;;;;;;16.45;3.08;;;;;;;;;;6249489;22;20401;-85
2022/09/24 05:28:48;;;;;;;13.57;2.83;;;;;;;;;;6274572;22;20020;-86
2022/09/24 05:31:16;;;;;;;18.05;2.85;;;;;;;;;;6303896;22;20031;-86
2022/09/24 05:33:42;;;;;;;16.27;2.90;;;;;;;;;;6273469;22;20023;-84
2022/09/24 05:36:18;;;;;;;13.85;2.70;;;;;;;;;;6249975;22;20047;-85
2022/09/24 05:38:44;;;;;;;15.77;2.80;;;;;;;;;;6275206;22;20019;-85
2022/09/24 05:41:10;;;;;;;16.90;2.95;;;;;;;;;;6251920;22;20089;-85
2022/09/24 05:43:37;;;;;;;16.58;3.05;;;;;;;;;;6251410;22;20068;-87
2022/09/24 05:46:06;;;;;;;26.48;3.20;;;;;;;;;;6277212;22;20026;-84
2022/09/24 05:48:33;;;;;;;15.32;2.80;;;;;;;;;;6277705;22;20019;-85
2022/09/24 05:51:02;;;;;;;21.63;3.45;;;;;;;;;;6227493;22;20546;-84
2022/09/24 05:53:28;;;;;;;15.32;2.47;;;;;;;;;;6285983;22;20077;-85
2022/09/24 05:55:54;;;;;;;9.73;2.25;;;;;;;;;;6317187;22;20343;-85
2022/09/24 05:58:20;;;;;;;19.55;2.88;;;;;;;;;;6312664;22;20396;-84
2022/09/24 06:00:46;;;;;;;22.30;3.53;;;;;;;;;;6288232;22;20334;-83
2022/09/24 06:03:13;;;;;;;19.08;2.72;;;;;;;;;;6284954;22;20346;-83
2022/09/24 06:05:50;;;;;;;19.48;2.70;;;;;;;;;;6298590;22;20468;-84
2022/09/24 06:08:18;;;;;;;15.90;2.85;;;;;;;;;;6307215;22;20451;-85
2022/09/24 06:10:45;;;;;;;15.77;3.17;;;;;;;;;;6334316;22;20382;-84
2022/09/24 06:13:23;;;;;;;20.02;2.63;;;;;;;;;;6277868;22;20015;-84
2022/09/24 06:16:08;;;;;;;17.00;2.45;;;;;;;;;;6314799;22;20046;-85
2022/09/24 06:18:35;;;;;;;20.50;3.55;;;;;;;;;;6308069;22;20019;-86
2022/09/24 06:21:17;;;;;;;12.80;2.50;;;;;;;;;;6309154;22;20094;-84
2022/09/24 06:23:46;;;;;;;15.10;2.30;;;;;;;;;;6334632;22;20391;-84
2022/09/24 06:26:13;;;;;;;21.40;2.80;;;;;;;;;;6333787;22;20136;-85
2022/09/24 06:28:39;;;;;;;19.13;3.08;;;;;;;;;;6308617;22;20019;-86
2022/09/24 06:31:06;;;;;;;20.58;2.67;;;;;;;;;;6334500;22;20051;-86
2022/09/24 06:33:32;;;;;;;16.05;2.30;;;;;;;;;;6283345;22;20023;-86
2022/09/24 06:36:07;;;;;;;21.45;2.53;;;;;;;;;;6332588;22;20106;-85
2022/09/24 06:38:44;;;;;;;8.13;2.13;;;;;;;;;;6281636;22;20015;-86
2022/09/24 06:41:10;;;;;;;11.30;2.17;;;;;;;;;;6333280;22;20021;-83
2022/09/24 06:43:36;;;;;;;13.13;2.05;;;;;;;;;;6279845;22;20523;-84
2022/09/24 06:46:25;;;;;;;;;;;;;;;;;;;;;
2022/09/24 06:49:13;;;;;;;10.52;2.50;;;;;;;;;;6334313;22;20457;-83
2022/09/24 06:51:42;;;;;;;18.15;3.45;;;;;;;;;;6302797;22;20019;-83
2022/09/24 06:54:22;;;;;;;8.80;2.03;;;;;;;;;;6304271;22;20089;-85
2022/09/24 06:56:51;;;;;;;9.82;2.10;;;;;;;;;;6330614;22;20018;-85
2022/09/24 06:59:17;;;;;;;6.78;1.50;;;;;;;;;;6304948;22;20120;-84
2022/09/24 07:01:43;;;;;;;9.00;2.13;;;;;;;;;;6279858;22;20026;-86
2022/09/24 07:04:09;;;;;;;11.35;2.42;;;;;;;;;;6304182;22;20019;-85
2022/09/24 07:09:32;;;;;;;17.08;3.03;;;;;;;;;;6307968;22;20022;-84
2022/09/24 07:12:01;;;;;;;10.68;1.95;;;;;;;;;;6334432;22;20054;-85
2022/09/24 07:14:28;;;;;;;10.70;2.00;;;;;;;;;;6307456;22;20092;-84
2022/09/24 07:16:54;;;;;;;10.75;2.20;;;;;;;;;;6337748;22;20473;-85
2022/09/24 07:19:20;;;;;;;8.85;2.53;;;;;;;;;;6311766;22;20453;-85
2022/09/24 07:21:47;;;;;;;12.00;2.60;;;;;;;;;;6312178;22;20023;-84
2022/09/24 07:24:13;;;;;;;13.38;2.72;;;;;;;;;;6310818;22;20115;-83
2022/09/24 07:26:40;;;;;;;14.93;2.30;;;;;;;;;;6284102;22;20015;-82
2022/09/24 07:29:06;;;;;;;8.85;2.40;;;;;;;;;;6275526;22;20019;-84
2022/09/24 07:31:35;;;;;;;9.88;1.95;;;;;;;;;;6323974;22;20015;-86
2022/09/24 07:36:51;;;;;;;;;;;14.20;99.90;;;;;;6342694;22;20037;-85
2022/09/24 07:39:26;;;;;;;16.13;3.15;;;;;;;;;;6286661;22;19918;-85
2022/09/24 07:42:20;;;;;;;14.38;2.67;;;;;;;;;;6311551;22;20443;-85
2022/09/24 08:04:51;;;;;;;19.05;2.80;;;;;;;;;;6321835;22;20108;-84
2022/09/24 08:10:57;;;;;;;17.27;2.88;;;14.50;99.90;;;;;;6329988;22;20038;-85
2022/09/24 08:13:24;;;;;;;14.70;2.67;;;;;;;;;;6255373;22;20054;-85
2022/09/24 08:16:16;;;;;;;14.85;2.35;;;14.70;99.90;;;;;;6224743;22;20023;-84
2022/09/24 08:28:30;;;;;;;11.88;1.65;;;;;;;;;;6301608;22;20030;-84
2022/09/24 08:31:00;;;;;;;15.13;2.72;;;;;;;;;;6249423;22;20023;-85
2022/09/24 08:36:45;;;;;;;18.02;2.63;;;;;;;;;;6305235;22;20029;-84
2022/09/24 08:39:12;;;;;;;8.55;1.88;;;;;;;;;;6252935;22;20066;-84
2022/09/24 08:41:44;;;;;;;10.15;1.80;;;;;;;;;;6311676;22;20023;-85
2022/09/24 08:47:43;;;;;;;8.63;1.95;;;;;;;;;;6209880;23;20024;-84
2022/09/24 09:00:39;;;;;;;14.70;2.33;;;;;;;;;;6303204;22;20034;-86
2022/09/24 09:33:04;;;;;;;16.27;2.00;;;;;;;;;;6305326;22;20453;-87
2022/09/24 09:43:11;;;;;;;9.75;2.30;;;;;;;;;;6279673;22;20035;-86
2022/09/24 10:17:04;;;;;;;16.25;2.45;;;;;;;;;;6303736;22;21733;-86
2022/09/24 10:27:22;;;;;;;;;;;;;;;;;;;;;
2022/09/24 10:36:21;;;;;;;11.13;2.10;;;;;;;;;;6322185;22;20029;-83
2022/09/24 10:38:47;;;;;;;9.10;1.88;;;;;;;;;;6328166;22;20015;-83
2022/09/24 10:41:16;;;;;;;13.00;1.50;;;;;;;;;;6252087;22;20050;-83
2022/09/24 10:57:45;;;;;;;8.77;1.60;;;;;;;;;;6332456;22;20326;-84
2022/09/24 11:13:00;;;;;;;9.40;1.75;;;;;;;;;;6311744;22;20035;-84
2022/09/24 11:22:47;;;;;;;7.18;1.15;;;;;;;;;;6303162;22;20486;-84
2022/09/24 11:32:22;;;;;;;6.65;1.48;;;;;;;;;;6300856;22;20077;-83
2022/09/24 11:34:58;;;;;;;7.78;1.85;;;;;;;;;;6297689;22;20015;-85
2022/09/24 11:48:01;;;;;;;7.05;1.48;;;;;;;;;;6284293;22;20097;-83
2022/09/24 12:38:57;;;;;;;7.25;2.15;;;;;;;;;;6269539;22;20038;-85
2022/09/24 12:41:50;;;;;;;10.63;2.10;;;;;;;;;;6214239;22;20028;-84
2022/09/24 12:54:43;;;;;;;11.40;2.38;;;;;;;;;;6295731;22;20430;-85
2022/09/24 12:57:13;;;;;;;10.73;2.03;;;;;;;;;;6271313;22;20103;-85
2022/09/24 13:03:50;;;;;;;11.88;1.85;;;14.00;99.90;;;;;;6298770;22;20523;-86
2022/09/24 13:16:58;;;;;;;15.87;2.37;;;;;;;;;;6291188;22;20030;-84
2022/09/24 13:34:19;;;;;;;7.10;1.80;;;;;;;;;;6303569;22;20348;-83
2022/09/24 13:44:16;;;;;;;9.82;2.05;;;;;;;;;;6322400;22;20339;-84
2022/09/24 14:13:44;;;;;;;16.80;2.40;;;;;;;;;;6301501;22;20145;-84
2022/09/24 14:16:20;;;;;;;10.65;1.80;;;;;;;;;;6238474;23;20571;-83
2022/09/24 14:19:01;;;;;;;17.48;2.38;;;;;;;;;;6210040;23;20020;-84
2022/09/24 14:24:53;;;;;;;9.85;1.80;;;;;;;;;;6254866;22;20078;-83
2022/09/24 14:27:20;;;;;;;18.00;3.85;;;;;;;;;;6286820;22;20023;-84
2022/09/24 14:29:59;;;;;;;8.15;1.85;;;;;;;;;;6263025;22;20015;-85
2022/09/24 14:32:33;;;;;;;7.70;1.55;;;;;;;;;;6319989;22;20083;-83
2022/09/24 14:35:00;;;;;;;7.95;2.28;;;;;;;;;;6240574;22;20026;-81
2022/09/24 14:37:58;;;;;;;9.10;2.00;;;;;;;;;;6319590;22;20101;-85
2022/09/24 15:13:40;;;;;;;9.45;2.17;;;;;;;;;;6278170;22;20144;-82
2022/09/24 15:16:16;;;;;;;8.88;1.77;;;;;;;;;;6245966;22;20054;-84
2022/09/24 15:21:47;;;;;;;8.52;1.67;;;;;;;;;;6302333;22;20046;-83
2022/09/24 15:24:14;;;;;;;8.68;1.40;;;;;;;;;;6250045;22;20019;-83
2022/09/24 15:26:41;;;;;;;9.40;2.13;;;;;;;;;;6250518;22;20383;-84
2022/09/24 15:32:32;;;;;;;8.15;1.73;;;;;;;;;;6303236;22;20138;-85
2022/09/24 15:34:58;;;;;;;15.05;2.55;;;;;;;;;;6251386;22;20019;-83
2022/09/24 15:37:26;;;;;;;8.02;1.77;;;;;;;;;;6275510;22;20383;-83
2022/09/24 15:39:53;;;;;;;12.30;3.30;;;;;;;;;;6276575;22;20038;-83
2022/09/24 15:45:42;;;;;;;14.55;3.60;;;;;;;;;;6300833;22;20065;-86
2022/09/24 15:48:22;;;;;;;13.88;2.53;;;;;;;;;;6243558;22;20027;-83
2022/09/24 15:50:50;;;;;;;13.95;2.50;;;;;;;;;;6225889;22;20050;-85
2022/09/24 15:53:24;;;;;;;9.48;2.58;;;;;;;;;;6246165;22;20053;-86
2022/09/24 15:59:23;;;;;;;10.40;1.92;;;;;;;;;;6300033;22;20106;-84
2022/09/24 16:02:08;;;;;;;11.63;2.55;;;;;;;;;;6267451;22;20065;-83
2022/09/24 16:04:34;;;;;;;13.07;3.08;;;;;;;;;;6267192;22;20019;-83
2022/09/24 16:07:00;;;;;;;10.25;2.22;;;;;;;;;;6267974;22;20019;-83
2022/09/24 16:13:30;;;;;;;10.38;2.38;;;;;;;;;;6253984;22;20083;-84
2022/09/24 16:44:46;;;;;;;18.02;4.45;;;;;;;;;;6267848;22;20839;-84
2022/09/24 17:34:17;;;;;;;9.80;2.42;;;;;;;;;;6299584;22;20022;-85
2022/09/24 17:37:11;;;;;;;8.73;1.70;;;;;;;;;;6271536;22;20023;-84
2022/09/24 17:39:49;;;;;;;11.15;2.38;;;;;;;;;;6287923;22;20098;-86
2022/09/24 17:42:15;;;;;;;8.52;1.48;;;;;;;;;;6300621;22;20056;-85
2022/09/24 17:44:41;;;;;;;12.05;1.85;;;;;;;;;;6214202;22;20095;-85
2022/09/24 18:03:24;;;;;;;8.10;1.83;;;;;;;;;;6339234;22;20049;-85
2022/09/24 18:19:48;;;;;;;10.52;2.25;;;;;;;;;;6300224;22;20019;-85
2022/09/24 18:22:14;;;;;;;11.18;2.40;;;;;;;;;;6277742;22;20640;-86
2022/09/24 18:28:32;;;;;;;11.05;1.90;;;;;;;;;;6297665;22;20039;-85
2022/09/24 19:02:28;;;;;;;14.63;2.15;;;;;;;;;;6309536;22;20034;-85
2022/09/24 19:04:59;;;;;;;13.85;3.63;;;;;;;;;;6211569;23;20020;-87
2022/09/24 19:13:37;;;;;;;8.88;1.63;;;;;;;;;;6314991;22;20033;31
2022/09/24 19:23:48;;;;;;;12.55;1.45;;;;;;;;;;6324466;22;20030;-87
2022/09/24 19:33:57;;;;;;;8.98;1.63;;;12.90;99.90;;;;;;6301211;22;20074;-88
2022/09/24 19:36:27;;;;;;;12.25;1.60;;;;;;;;;;6264445;22;20027;-86
2022/09/24 19:39:03;;;;;;;13.43;1.75;;;;;;;;;;6235190;22;20039;-88
2022/09/24 19:55:17;;;;;;;15.82;2.03;;;;;;;;;;6303835;22;20046;-88
2022/09/24 20:01:23;;;;;;;10.57;1.45;;;;;;;;;;6300301;22;20057;-87
2022/09/24 20:42:43;;;;;;;19.15;2.30;;;;;;;;;;6266669;22;20093;-86
2022/09/24 20:45:24;;;;;;;;;;;;;;;;;;6193442;22;20021;-86
2022/09/24 20:48:00;;;;;;;10.52;1.80;;;;;;;;;;6302881;22;19915;-85
2022/09/24 20:54:04;;;;;;;9.32;1.10;;;;;;;;;;6295402;22;20145;-87
2022/09/24 20:56:31;;;;;;;7.40;1.50;;;;;;;;;;6292798;22;20031;-85
2022/09/24 21:01:38;;;;;;;12.10;1.73;;;;;;;;;;6295998;22;20076;-88
2022/09/24 21:07:27;;;;;;;12.10;1.52;;;;;;;;;;6302455;22;20026;-86
2022/09/24 21:09:53;;;;;;;11.07;1.50;;;;;;;;;;6271692;22;20076;-87
2022/09/24 21:24:18;;;;;;;8.75;1.48;;;;;;;;;;6276396;22;20458;-86
2022/09/24 21:58:18;;;;;;;9.05;1.50;;;;;;;;;;6286894;22;20022;31
2022/09/24 22:40:10;;;;;;;14.30;1.80;;;;;;;;;;6300581;22;20019;-87
2022/09/24 22:42:36;;;;;;;12.43;1.63;;;;;;;;;;6274210;22;20131;-86
2022/09/24 22:51:38;;;;;;;7.82;1.45;;;;;;;;;;6305353;22;20058;-84
2022/09/24 22:54:54;;;;;;;12.32;1.60;;;;;;;;;;6239335;23;20080;-84
2022/09/24 23:07:47;;;;;;;10.27;2.08;;;;;;;;;;6270731;22;20023;-85
2022/09/24 23:22:57;;;;;;;7.82;1.58;;;;;;;;;;6298035;22;20050;-86
2022/09/24 23:38:39;;;;;;;12.07;2.13;;;;;;;;;;6315409;22;20029;-85
2022/09/24 23:41:06;;;;;;;13.98;1.90;;;;;;;;;;6301065;22;20463;-85
2022/09/24 23:43:45;;;;;;;15.80;2.38;;;;;;;;;;6329977;22;20030;-86
2022/09/24 23:53:17;;;;;;;15.20;1.83;;;;;;;;;;6311184;22;20390;-86
